sensor_id;sensor_type;location;lat;lon;timestamp;pressure;altitude;pressure_sealevel;temperature;humidity
73297;BME280;61524;50.938;11.396;2022-12-01T00:00:25;99917.16;;;1.10;100.00
73297;BME280;61524;50.938;11.396;2022-12-01T00:02:51;99917.50;;;1.15;100.00
73297;BME280;61524;50.938;11.396;2022-12-01T00:05:16;99928.19;;;1.13;100.00
73297;BME280;61524;50.938;11.396;2022-12-01T00:07:42;99917.66;;;1.05;100.00
73297;BME280;61524;50.938;11.396;2022-12-01T00:10:09;99917.31;;;1.16;100.00
73297;BME280;61524;50.938;11.396;2022-12-01T00:12:58;99912.41;;;1.13;100.00
73297;BME280;61524;50.938;11.396;2022-12-01T00:15:26;99909.09;;;1.11;100.00
73297;BME280;61524;50.938;11.396;2022-12-01T00:17:52;99907.78;;;0.99;100.00
73297;BME280;61524;50.938;11.396;2022-12-01T00:20:17;99902.84;;;0.96;100.00
73297;BME280;61524;50.938;11.396;2022-12-01T00:22:44;99916.00;;;1.04;100.00
73297;BME280;61524;50.938;11.396;2022-12-01T00:25:12;99913.03;;;1.07;100.00
73297;BME280;61524;50.938;11.396;2022-12-01T00:27:38;99909.13;;;1.03;100.00
73297;BME280;61524;50.938;11.396;2022-12-01T00:30:06;99905.50;;;1.04;100.00
73297;BME280;61524;50.938;11.396;2022-12-01T00:32:32;99914.19;;;1.04;100.00
73297;BME280;61524;50.938;11.396;2022-12-01T00:34:57;99897.75;;;0.86;100.00
73297;BME280;61524;50.938;11.396;2022-12-01T00:37:23;99902.84;;;0.96;100.00
73297;BME280;61524;50.938;11.396;2022-12-01T00:39:48;99906.28;;;0.88;100.00
73297;BME280;61524;50.938;11.396;2022-12-01T00:42:14;99915.50;;;0.92;100.00
73297;BME280;61524;50.938;11.396;2022-12-01T00:44:39;99908.09;;;0.96;100.00
73297;BME280;61524;50.938;11.396;2022-12-01T00:47:05;99910.25;;;1.00;100.00
73297;BME280;61524;50.938;11.396;2022-12-01T00:49:30;99918.13;;;1.00;100.00
73297;BME280;61524;50.938;11.396;2022-12-01T00:51:56;99912.69;;;1.02;100.00
73297;BME280;61524;50.938;11.396;2022-12-01T00:54:21;99916.34;;;0.93;100.00
73297;BME280;61524;50.938;11.396;2022-12-01T00:56:47;99916.16;;;0.94;100.00
73297;BME280;61524;50.938;11.396;2022-12-01T00:59:12;99927.03;;;0.99;100.00
73297;BME280;61524;50.938;11.396;2022-12-01T01:01:38;99924.06;;;0.94;100.00
73297;BME280;61524;50.938;11.396;2022-12-01T01:04:05;99922.88;;;0.97;100.00
73297;BME280;61524;50.938;11.396;2022-12-01T01:06:31;99933.25;;;0.90;100.00
73297;BME280;61524;50.938;11.396;2022-12-01T01:08:57;99933.94;;;0.92;100.00
73297;BME280;61524;50.938;11.396;2022-12-01T01:11:22;99920.59;;;0.94;100.00
73297;BME280;61524;50.938;11.396;2022-12-01T01:13:48;99928.47;;;0.86;100.00
73297;BME280;61524;50.938;11.396;2022-12-01T01:16:17;99921.53;;;0.68;100.00
73297;BME280;61524;50.938;11.396;2022-12-01T01:18:42;99918.78;;;0.78;100.00
73297;BME280;61524;50.938;11.396;2022-12-01T01:21:11;99925.50;;;0.81;100.00
73297;BME280;61524;50.938;11.396;2022-12-01T01:23:37;99916.16;;;0.86;100.00
73297;BME280;61524;50.938;11.396;2022-12-01T01:26:11;99915.31;;;0.86;100.00
73297;BME280;61524;50.938;11.396;2022-12-01T01:28:36;99923.03;;;0.71;100.00
73297;BME280;61524;50.938;11.396;2022-12-01T01:31:11;99927.47;;;0.70;100.00
73297;BME280;61524;50.938;11.396;2022-12-01T01:33:37;99931.44;;;0.91;100.00
73297;BME280;61524;50.938;11.396;2022-12-01T01:36:03;99923.38;;;0.84;100.00
73297;BME280;61524;50.938;11.396;2022-12-01T01:38:30;99927.94;;;0.66;100.00
73297;BME280;61524;50.938;11.396;2022-12-01T01:40:56;99933.22;;;0.66;100.00
73297;BME280;61524;50.938;11.396;2022-12-01T01:43:41;99934.03;;;0.74;100.00
73297;BME280;61524;50.938;11.396;2022-12-01T01:46:10;99923.84;;;0.79;100.00
73297;BME280;61524;50.938;11.396;2022-12-01T01:48:37;99923.69;;;0.65;100.00
73297;BME280;61524;50.938;11.396;2022-12-01T01:51:03;99934.69;;;0.60;100.00
73297;BME280;61524;50.938;11.396;2022-12-01T01:53:30;99939.47;;;0.65;100.00
73297;BME280;61524;50.938;11.396;2022-12-01T01:55:56;99933.81;;;0.51;100.00
73297;BME280;61524;50.938;11.396;2022-12-01T01:58:22;99934.00;;;0.58;100.00
73297;BME280;61524;50.938;11.396;2022-12-01T02:00:47;99939.59;;;0.55;100.00
73297;BME280;61524;50.938;11.396;2022-12-01T02:03:15;99935.47;;;0.52;100.00
73297;BME280;61524;50.938;11.396;2022-12-01T02:05:42;99941.41;;;0.55;100.00
73297;BME280;61524;50.938;11.396;2022-12-01T02:08:11;99931.66;;;0.47;100.00
73297;BME280;61524;50.938;11.396;2022-12-01T02:13:47;99926.91;;;0.50;100.00
73297;BME280;61524;50.938;11.396;2022-12-01T02:16:31;99933.00;;;0.59;100.00
73297;BME280;61524;50.938;11.396;2022-12-01T02:27:30;99928.78;;;0.74;100.00
73297;BME280;61524;50.938;11.396;2022-12-01T02:38:28;99929.16;;;0.88;100.00
73297;BME280;61524;50.938;11.396;2022-12-01T02:41:25;99925.69;;;0.87;100.00
73297;BME280;61524;50.938;11.396;2022-12-01T02:43:56;99925.66;;;0.71;100.00
73297;BME280;61524;50.938;11.396;2022-12-01T02:49:02;99929.63;;;0.83;100.00
73297;BME280;61524;50.938;11.396;2022-12-01T02:51:31;99929.28;;;0.78;100.00
73297;BME280;61524;50.938;11.396;2022-12-01T02:54:00;99929.28;;;0.78;100.00
73297;BME280;61524;50.938;11.396;2022-12-01T02:56:27;99933.56;;;0.79;100.00
73297;BME280;61524;50.938;11.396;2022-12-01T02:58:53;99924.88;;;0.87;100.00
73297;BME280;61524;50.938;11.396;2022-12-01T03:09:44;99919.94;;;0.92;100.00
73297;BME280;61524;50.938;11.396;2022-12-01T03:12:19;99910.41;;;0.99;100.00
73297;BME280;61524;50.938;11.396;2022-12-01T03:15:02;99908.56;;;0.91;100.00
73297;BME280;61524;50.938;11.396;2022-12-01T03:17:42;99912.53;;;0.87;100.00
73297;BME280;61524;50.938;11.396;2022-12-01T03:23:14;99910.38;;;0.91;100.00
73297;BME280;61524;50.938;11.396;2022-12-01T03:25:45;99906.63;;;0.93;100.00
73297;BME280;61524;50.938;11.396;2022-12-01T03:28:14;99917.47;;;0.90;100.00
73297;BME280;61524;50.938;11.396;2022-12-01T03:30:43;99919.09;;;0.83;100.00
73297;BME280;61524;50.938;11.396;2022-12-01T03:33:19;99926.34;;;0.89;100.00
73297;BME280;61524;50.938;11.396;2022-12-01T03:36:38;99931.44;;;0.83;100.00
73297;BME280;61524;50.938;11.396;2022-12-01T03:38:41;99921.75;;;0.83;100.00
73297;BME280;61524;50.938;11.396;2022-12-01T03:41:17;99926.47;;;0.71;100.00
73297;BME280;61524;50.938;11.396;2022-12-01T03:43:50;99927.81;;;0.84;100.00
73297;BME280;61524;50.938;11.396;2022-12-01T03:46:42;99931.09;;;0.86;100.00
73297;BME280;61524;50.938;11.396;2022-12-01T03:49:12;99925.22;;;1.00;100.00
73297;BME280;61524;50.938;11.396;2022-12-01T03:57:07;99925.88;;;0.94;100.00
73297;BME280;61524;50.938;11.396;2022-12-01T03:59:36;99930.47;;;0.92;100.00
73297;BME280;61524;50.938;11.396;2022-12-01T04:02:05;99933.41;;;0.89;100.00
73297;BME280;61524;50.938;11.396;2022-12-01T04:04:31;99926.50;;;0.88;100.00
73297;BME280;61524;50.938;11.396;2022-12-01T04:06:56;99926.69;;;0.94;100.00
73297;BME280;61524;50.938;11.396;2022-12-01T04:09:22;99938.19;;;0.93;100.00
73297;BME280;61524;50.938;11.396;2022-12-01T04:11:47;99940.00;;;0.93;100.00
73297;BME280;61524;50.938;11.396;2022-12-01T04:14:31;99936.53;;;0.84;100.00
73297;BME280;61524;50.938;11.396;2022-12-01T04:16:56;99938.50;;;0.90;100.00
73297;BME280;61524;50.938;11.396;2022-12-01T04:19:22;99928.47;;;0.86;100.00
73297;BME280;61524;50.938;11.396;2022-12-01T04:21:47;99928.16;;;0.97;100.00
73297;BME280;61524;50.938;11.396;2022-12-01T04:24:14;99939.84;;;0.94;100.00
73297;BME280;61524;50.938;11.396;2022-12-01T04:26:39;99941.97;;;0.99;100.00
73297;BME280;61524;50.938;11.396;2022-12-01T04:29:08;99934.75;;;1.01;100.00
73297;BME280;61524;50.938;11.396;2022-12-01T04:31:34;99935.41;;;0.87;100.00
73297;BME280;61524;50.938;11.396;2022-12-01T04:33:59;99941.66;;;0.94;100.00
73297;BME280;61524;50.938;11.396;2022-12-01T04:36:26;99940.00;;;0.93;100.00
73297;BME280;61524;50.938;11.396;2022-12-01T04:38:53;99938.03;;;0.87;100.00
73297;BME280;61524;50.938;11.396;2022-12-01T04:41:19;99945.75;;;0.88;100.00
73297;BME280;61524;50.938;11.396;2022-12-01T04:43:44;99946.25;;;0.92;100.00
73297;BME280;61524;50.938;11.396;2022-12-01T04:46:10;99940.00;;;0.93;100.00
73297;BME280;61524;50.938;11.396;2022-12-01T04:48:38;99952.66;;;0.81;100.00
73297;BME280;61524;50.938;11.396;2022-12-01T04:51:06;99939.16;;;0.84;100.00
73297;BME280;61524;50.938;11.396;2022-12-01T04:53:32;99953.63;;;0.88;100.00
73297;BME280;61524;50.938;11.396;2022-12-01T04:56:00;99958.72;;;0.90;100.00
73297;BME280;61524;50.938;11.396;2022-12-01T04:58:28;99953.50;;;0.98;100.00
73297;BME280;61524;50.938;11.396;2022-12-01T05:00:53;99957.75;;;0.83;100.00
73297;BME280;61524;50.938;11.396;2022-12-01T05:03:19;99954.25;;;0.74;100.00
73297;BME280;61524;50.938;11.396;2022-12-01T05:05:44;99952.66;;;0.81;100.00
73297;BME280;61524;50.938;11.396;2022-12-01T05:08:10;99964.63;;;0.84;100.00
73297;BME280;61524;50.938;11.396;2022-12-01T05:10:36;99961.00;;;0.76;100.00
73297;BME280;61524;50.938;11.396;2022-12-01T05:13:03;99968.25;;;0.91;100.00
73297;BME280;61524;50.938;11.396;2022-12-01T05:15:29;99971.53;;;0.85;100.00
73297;BME280;61524;50.938;11.396;2022-12-01T05:17:54;99970.22;;;0.81;100.00
73297;BME280;61524;50.938;11.396;2022-12-01T05:20:22;99964.28;;;0.70;100.00
73297;BME280;61524;50.938;11.396;2022-12-01T05:23:07;99959.34;;;0.67;100.00
73297;BME280;61524;50.938;11.396;2022-12-01T05:25:32;99980.69;;;0.64;100.00
73297;BME280;61524;50.938;11.396;2022-12-01T05:27:58;99971.31;;;0.70;100.00
73297;BME280;61524;50.938;11.396;2022-12-01T05:30:23;99976.28;;;0.65;100.00
73297;BME280;61524;50.938;11.396;2022-12-01T05:32:49;99976.41;;;0.63;100.00
73297;BME280;61524;50.938;11.396;2022-12-01T05:35:14;99983.66;;;0.69;100.00
73297;BME280;61524;50.938;11.396;2022-12-01T05:37:40;99977.97;;;0.82;100.00
73297;BME280;61524;50.938;11.396;2022-12-01T05:40:06;99982.06;;;0.76;100.00
73297;BME280;61524;50.938;11.396;2022-12-01T05:42:31;99970.41;;;0.87;100.00
73297;BME280;61524;50.938;11.396;2022-12-01T05:44:56;99977.41;;;0.62;100.00
73297;BME280;61524;50.938;11.396;2022-12-01T05:47:22;99968.34;;;0.57;100.00
73297;BME280;61524;50.938;11.396;2022-12-01T05:49:47;99977.53;;;0.52;100.00
73297;BME280;61524;50.938;11.396;2022-12-01T05:52:13;99961.78;;;0.61;100.00
73297;BME280;61524;50.938;11.396;2022-12-01T05:54:38;99965.25;;;0.61;100.00
73297;BME280;61524;50.938;11.396;2022-12-01T05:57:04;99963.31;;;0.71;100.00
73297;BME280;61524;50.938;11.396;2022-12-01T05:59:29;99971.19;;;0.79;100.00
73297;BME280;61524;50.938;11.396;2022-12-01T06:01:55;99972.34;;;0.77;100.00
73297;BME280;61524;50.938;11.396;2022-12-01T06:04:20;99968.56;;;0.79;100.00
73297;BME280;61524;50.938;11.396;2022-12-01T06:06:46;99979.91;;;0.72;100.00
73297;BME280;61524;50.938;11.396;2022-12-01T06:09:11;99969.69;;;0.69;100.00
73297;BME280;61524;50.938;11.396;2022-12-01T06:11:36;99969.97;;;0.58;100.00
73297;BME280;61524;50.938;11.396;2022-12-01T06:14:02;99967.00;;;0.52;100.00
73297;BME280;61524;50.938;11.396;2022-12-01T06:16:27;99977.09;;;0.65;100.00
73297;BME280;61524;50.938;11.396;2022-12-01T06:18:53;99984.03;;;0.83;100.00
73297;BME280;61524;50.938;11.396;2022-12-01T06:21:18;99981.72;;;0.79;100.00
73297;BME280;61524;50.938;11.396;2022-12-01T06:23:43;99982.19;;;0.75;100.00
73297;BME280;61524;50.938;11.396;2022-12-01T06:26:09;99970.03;;;0.66;100.00
73297;BME280;61524;50.938;11.396;2022-12-01T06:28:34;99986.41;;;0.51;100.00
73297;BME280;61524;50.938;11.396;2022-12-01T06:31:00;99980.69;;;0.64;100.00
73297;BME280;61524;50.938;11.396;2022-12-01T06:33:25;100001.88;;;0.63;100.00
73297;BME280;61524;50.938;11.396;2022-12-01T06:36:02;99993.69;;;0.66;100.00
73297;BME280;61524;50.938;11.396;2022-12-01T06:38:32;99998.47;;;0.70;100.00
73297;BME280;61524;50.938;11.396;2022-12-01T06:40:58;100006.97;;;0.64;100.00
73297;BME280;61524;50.938;11.396;2022-12-01T06:43:24;100001.19;;;0.52;100.00
73297;BME280;61524;50.938;11.396;2022-12-01T06:45:49;100012.88;;;0.58;100.00
73297;BME280;61524;50.938;11.396;2022-12-01T06:48:15;100007.47;;;0.60;100.00
73297;BME280;61524;50.938;11.396;2022-12-01T06:50:40;100009.81;;;0.37;100.00
73297;BME280;61524;50.938;11.396;2022-12-01T06:53:06;100007.41;;;0.43;100.00
73297;BME280;61524;50.938;11.396;2022-12-01T06:55:31;100006.59;;;0.51;100.00
73297;BME280;61524;50.938;11.396;2022-12-01T06:57:59;100005.19;;;0.65;100.00
73297;BME280;61524;50.938;11.396;2022-12-01T07:00:25;100015.84;;;0.63;100.00
73297;BME280;61524;50.938;11.396;2022-12-01T07:02:51;100014.78;;;0.48;100.00
73297;BME280;61524;50.938;11.396;2022-12-01T07:05:16;100023.28;;;0.34;100.00
73297;BME280;61524;50.938;11.396;2022-12-01T07:07:41;100017.28;;;0.49;100.00
73297;BME280;61524;50.938;11.396;2022-12-01T07:10:09;100026.00;;;0.50;100.00
73297;BME280;61524;50.938;11.396;2022-12-01T07:12:34;100032.34;;;0.39;100.00
73297;BME280;61524;50.938;11.396;2022-12-01T07:15:00;100034.69;;;0.16;100.00
73297;BME280;61524;50.938;11.396;2022-12-01T07:17:26;100038.22;;;0.07;100.00
73297;BME280;61524;50.938;11.396;2022-12-01T07:19:52;100035.81;;;0.14;100.00
73297;BME280;61524;50.938;11.396;2022-12-01T07:22:17;100039.31;;;0.22;100.00
73297;BME280;61524;50.938;11.396;2022-12-01T07:24:43;100048.84;;;0.23;100.00
73297;BME280;61524;50.938;11.396;2022-12-01T07:27:08;100043.31;;;0.09;100.00
73297;BME280;61524;50.938;11.396;2022-12-01T07:29:34;100037.66;;;-0.05;100.00
73297;BME280;61524;50.938;11.396;2022-12-01T07:31:59;100044.34;;;-0.10;100.00
73297;BME280;61524;50.938;11.396;2022-12-01T07:34:25;100037.78;;;-0.06;100.00
73297;BME280;61524;50.938;11.396;2022-12-01T07:36:50;100045.22;;;-0.02;100.00
73297;BME280;61524;50.938;11.396;2022-12-01T07:39:16;100042.28;;;0.02;100.00
73297;BME280;61524;50.938;11.396;2022-12-01T07:41:41;100042.69;;;-0.11;100.00
73297;BME280;61524;50.938;11.396;2022-12-01T07:44:09;100046.91;;;-0.18;100.00
73297;BME280;61524;50.938;11.396;2022-12-01T07:46:35;100042.75;;;-0.03;100.00
73297;BME280;61524;50.938;11.396;2022-12-01T07:49:04;100041.41;;;-0.07;100.00
73297;BME280;61524;50.938;11.396;2022-12-01T07:51:30;100048.81;;;-0.03;100.00
73297;BME280;61524;50.938;11.396;2022-12-01T07:54:00;100054.25;;;-0.04;100.00
73297;BME280;61524;50.938;11.396;2022-12-01T07:56:26;100057.44;;;0.08;100.00
73297;BME280;61524;50.938;11.396;2022-12-01T07:58:51;100047.91;;;0.07;100.00
73297;BME280;61524;50.938;11.396;2022-12-01T08:01:19;100058.34;;;-0.02;100.00
73297;BME280;61524;50.938;11.396;2022-12-01T08:03:47;100057.84;;;-0.05;100.00
73297;BME280;61524;50.938;11.396;2022-12-01T08:06:13;100067.50;;;-0.06;100.00
73297;BME280;61524;50.938;11.396;2022-12-01T08:08:40;100059.53;;;0.04;100.00
73297;BME280;61524;50.938;11.396;2022-12-01T08:11:26;100063.97;;;0.04;100.00
73297;BME280;61524;50.938;11.396;2022-12-01T08:13:54;100059.59;;;-0.14;100.00
73297;BME280;61524;50.938;11.396;2022-12-01T08:16:21;100062.41;;;-0.07;100.00
73297;BME280;61524;50.938;11.396;2022-12-01T08:18:47;100055.34;;;-0.07;100.00
73297;BME280;61524;50.938;11.396;2022-12-01T08:21:17;100051.88;;;0.11;100.00
73297;BME280;61524;50.938;11.396;2022-12-01T08:23:43;100055.63;;;0.08;100.00
73297;BME280;61524;50.938;11.396;2022-12-01T08:26:14;100055.22;;;0.21;100.00
73297;BME280;61524;50.938;11.396;2022-12-01T08:28:40;100060.09;;;0.16;100.00
73297;BME280;61524;50.938;11.396;2022-12-01T08:31:13;100063.72;;;0.15;100.00
73297;BME280;61524;50.938;11.396;2022-12-01T08:33:39;100063.47;;;0.26;100.00
73297;BME280;61524;50.938;11.396;2022-12-01T08:36:05;100064.34;;;0.35;100.00
73297;BME280;61524;50.938;11.396;2022-12-01T08:38:32;100067.84;;;0.43;100.00
73297;BME280;61524;50.938;11.396;2022-12-01T08:41:02;100072.44;;;0.41;100.00
73297;BME280;61524;50.938;11.396;2022-12-01T08:43:28;100068.72;;;0.26;100.00
73297;BME280;61524;50.938;11.396;2022-12-01T08:45:56;100079.66;;;0.39;100.00
73297;BME280;61524;50.938;11.396;2022-12-01T08:48:22;100064.09;;;0.46;100.00
73297;BME280;61524;50.938;11.396;2022-12-01T08:50:47;100076.22;;;0.39;100.00
73297;BME280;61524;50.938;11.396;2022-12-01T08:53:13;100076.50;;;0.36;100.00
73297;BME280;61524;50.938;11.396;2022-12-01T08:55:38;100076.69;;;0.42;100.00
73297;BME280;61524;50.938;11.396;2022-12-01T08:58:04;100081.75;;;0.36;100.00
73297;BME280;61524;50.938;11.396;2022-12-01T09:00:29;100076.44;;;0.02;100.00
73297;BME280;61524;50.938;11.396;2022-12-01T09:02:55;100071.16;;;0.19;100.00
73297;BME280;61524;50.938;11.396;2022-12-01T09:05:20;100075.78;;;0.25;100.00
73297;BME280;61524;50.938;11.396;2022-12-01T09:07:45;100079.94;;;0.10;100.00
73297;BME280;61524;50.938;11.396;2022-12-01T09:10:31;100080.13;;;-0.09;100.00
73297;BME280;61524;50.938;11.396;2022-12-01T09:12:56;100079.13;;;0.10;100.00
73297;BME280;61524;50.938;11.396;2022-12-01T09:15:22;100085.09;;;0.20;100.00
73297;BME280;61524;50.938;11.396;2022-12-01T09:17:47;100082.28;;;0.13;100.00
73297;BME280;61524;50.938;11.396;2022-12-01T09:20:12;100079.34;;;0.16;100.00
73297;BME280;61524;50.938;11.396;2022-12-01T09:22:38;100082.34;;;0.04;100.00
73297;BME280;61524;50.938;11.396;2022-12-01T09:25:04;100087.94;;;0.26;100.00
73297;BME280;61524;50.938;11.396;2022-12-01T09:27:29;100079.34;;;0.16;100.00
73297;BME280;61524;50.938;11.396;2022-12-01T09:29:55;100080.63;;;0.12;100.00
73297;BME280;61524;50.938;11.396;2022-12-01T09:32:20;100088.41;;;0.22;100.00
73297;BME280;61524;50.938;11.396;2022-12-01T09:34:45;100080.00;;;0.18;100.00
73297;BME280;61524;50.938;11.396;2022-12-01T09:37:11;100076.47;;;0.28;100.00
73297;BME280;61524;50.938;11.396;2022-12-01T09:39:36;100082.91;;;0.33;100.00
73297;BME280;61524;50.938;11.396;2022-12-01T09:42:12;100076.94;;;0.23;100.00
73297;BME280;61524;50.938;11.396;2022-12-01T09:44:53;100077.03;;;0.13;100.00
73297;BME280;61524;50.938;11.396;2022-12-01T09:47:30;100076.09;;;0.22;100.00
73297;BME280;61524;50.938;11.396;2022-12-01T09:50:15;100077.13;;;0.30;100.00
73297;BME280;61524;50.938;11.396;2022-12-01T09:53:06;100078.09;;;0.29;100.00
73297;BME280;61524;50.938;11.396;2022-12-01T09:55:32;100072.66;;;0.22;100.00
73297;BME280;61524;50.938;11.396;2022-12-01T09:58:01;100077.38;;;0.18;100.00
73297;BME280;61524;50.938;11.396;2022-12-01T10:00:32;100077.78;;;0.06;100.00
73297;BME280;61524;50.938;11.396;2022-12-01T10:08:15;100076.38;;;-0.07;100.00
73297;BME280;61524;50.938;11.396;2022-12-01T10:10:45;100063.59;;;-0.02;100.00
73297;BME280;61524;50.938;11.396;2022-12-01T10:13:17;100070.03;;;0.04;100.00
73297;BME280;61524;50.938;11.396;2022-12-01T10:26:50;100050.69;;;0.05;100.00
73297;BME280;61524;50.938;11.396;2022-12-01T10:32:28;100057.44;;;0.08;100.00
73297;BME280;61524;50.938;11.396;2022-12-01T10:34:57;100051.38;;;0.07;100.00
73297;BME280;61524;50.938;11.396;2022-12-01T10:37:25;100043.81;;;-0.14;100.00
73297;BME280;61524;50.938;11.396;2022-12-01T10:39:54;100047.81;;;-0.10;100.00
73297;BME280;61524;50.938;11.396;2022-12-01T10:42:27;100048.53;;;0.01;100.00
73297;BME280;61524;50.938;11.396;2022-12-01T10:45:00;100034.81;;;-0.11;100.00
73297;BME280;61524;50.938;11.396;2022-12-01T10:47:26;100040.13;;;-0.03;100.00
73297;BME280;61524;50.938;11.396;2022-12-01T10:49:56;100046.03;;;-0.01;100.00
73297;BME280;61524;50.938;11.396;2022-12-01T10:52:36;100052.47;;;0.05;100.00
73297;BME280;61524;50.938;11.396;2022-12-01T10:55:16;100041.72;;;0.16;100.00
73297;BME280;61524;50.938;11.396;2022-12-01T10:57:51;100037.41;;;0.07;100.00
73297;BME280;61524;50.938;11.396;2022-12-01T11:00:33;100033.84;;;0.16;100.00
73297;BME280;61524;50.938;11.396;2022-12-01T11:03:01;100040.44;;;0.20;100.00
73297;BME280;61524;50.938;11.396;2022-12-01T11:05:37;100035.97;;;0.12;100.00
73297;BME280;61524;50.938;11.396;2022-12-01T11:08:05;100027.78;;;-0.11;100.00
73297;BME280;61524;50.938;11.396;2022-12-01T11:10:36;100020.19;;;0.12;100.00
73297;BME280;61524;50.938;11.396;2022-12-01T11:13:26;100034.63;;;0.08;100.00
73297;BME280;61524;50.938;11.396;2022-12-01T11:15:53;100035.28;;;0.10;100.00
73297;BME280;61524;50.938;11.396;2022-12-01T11:18:21;100024.31;;;0.15;100.00
73297;BME280;61524;50.938;11.396;2022-12-01T11:20:47;100031.38;;;0.14;100.00
73297;BME280;61524;50.938;11.396;2022-12-01T11:23:28;100028.44;;;0.17;100.00
73297;BME280;61524;50.938;11.396;2022-12-01T11:26:12;100024.13;;;0.08;100.00
73297;BME280;61524;50.938;11.396;2022-12-01T11:28:50;100030.44;;;0.23;100.00
73297;BME280;61524;50.938;11.396;2022-12-01T11:31:17;100015.44;;;0.16;100.00
73297;BME280;61524;50.938;11.396;2022-12-01T11:33:52;100021.41;;;0.26;100.00
73297;BME280;61524;50.938;11.396;2022-12-01T11:38:49;100019.31;;;0.30;100.00
73297;BME280;61524;50.938;11.396;2022-12-01T11:41:38;100008.97;;;0.02;100.00
73297;BME280;61524;50.938;11.396;2022-12-01T11:44:17;100011.22;;;-0.03;100.00
73297;BME280;61524;50.938;11.396;2022-12-01T11:46:45;100010.97;;;-0.18;100.00
73297;BME280;61524;50.938;11.396;2022-12-01T11:49:17;100007.41;;;-0.09;100.00
73297;BME280;61524;50.938;11.396;2022-12-01T11:51:42;100016.06;;;-0.16;100.00
73297;BME280;61524;50.938;11.396;2022-12-01T11:54:17;100005.97;;;-0.03;100.00
73297;BME280;61524;50.938;11.396;2022-12-01T11:56:44;100007.00;;;0.04;100.00
73297;BME280;61524;50.938;11.396;2022-12-01T11:59:23;100005.31;;;-0.05;100.00
73297;BME280;61524;50.938;11.396;2022-12-01T12:10:22;100000.00;;;-0.13;100.00
73297;BME280;61524;50.938;11.396;2022-12-01T12:21:23;100013.97;;;0.13;100.00
73297;BME280;61524;50.938;11.396;2022-12-01T12:35:21;99990.25;;;0.05;100.00
73297;BME280;61524;50.938;11.396;2022-12-01T12:40:53;99994.31;;;0.25;100.00
73297;BME280;61524;50.938;11.396;2022-12-01T12:43:24;99988.06;;;0.26;100.00
73297;BME280;61524;50.938;11.396;2022-12-01T12:51:38;99996.47;;;0.22;100.00
73297;BME280;61524;50.938;11.396;2022-12-01T12:56:39;99988.16;;;0.09;100.00
73297;BME280;61524;50.938;11.396;2022-12-01T12:59:10;100002.06;;;0.27;100.00
73297;BME280;61524;50.938;11.396;2022-12-01T13:02:03;99993.84;;;0.30;100.00
73297;BME280;61524;50.938;11.396;2022-12-01T13:07:39;99992.81;;;0.49;100.00
73297;BME280;61524;50.938;11.396;2022-12-01T13:10:19;100002.56;;;0.31;100.00
73297;BME280;61524;50.938;11.396;2022-12-01T13:12:56;100007.47;;;0.25;100.00
73297;BME280;61524;50.938;11.396;2022-12-01T13:15:25;99998.94;;;0.32;100.00
73297;BME280;61524;50.938;11.396;2022-12-01T13:18:03;100002.63;;;0.39;100.00
73297;BME280;61524;50.938;11.396;2022-12-01T13:20:33;100007.31;;;0.27;100.00
73297;BME280;61524;50.938;11.396;2022-12-01T13:22:59;100009.44;;;0.32;100.00
73297;BME280;61524;50.938;11.396;2022-12-01T13:25:33;100007.25;;;0.19;100.00
73297;BME280;61524;50.938;11.396;2022-12-01T13:28:01;99997.38;;;0.13;100.00
73297;BME280;61524;50.938;11.396;2022-12-01T13:30:27;99998.19;;;0.13;100.00
73297;BME280;61524;50.938;11.396;2022-12-01T13:33:03;99996.28;;;0.23;100.00
73297;BME280;61524;50.938;11.396;2022-12-01T13:38:34;99994.75;;;0.13;100.00
73297;BME280;61524;50.938;11.396;2022-12-01T13:46:21;99985.41;;;0.18;100.00
73297;BME280;61524;50.938;11.396;2022-12-01T13:51:12;99988.75;;;0.29;100.00
73297;BME280;61524;50.938;11.396;2022-12-01T13:53:38;99992.88;;;0.31;100.00
73297;BME280;61524;50.938;11.396;2022-12-01T13:58:43;99987.13;;;0.02;100.00
73297;BME280;61524;50.938;11.396;2022-12-01T14:06:43;99990.66;;;-0.34;100.00
73297;BME280;61524;50.938;11.396;2022-12-01T14:09:25;99990.38;;;-0.31;100.00
73297;BME280;61524;50.938;11.396;2022-12-01T14:11:57;99980.16;;;-0.34;100.00
73297;BME280;61524;50.938;11.396;2022-12-01T14:14:37;99986.31;;;-0.25;100.00
73297;BME280;61524;50.938;11.396;2022-12-01T14:17:04;99985.72;;;-0.37;100.00
73297;BME280;61524;50.938;11.396;2022-12-01T14:19:38;99988.47;;;-0.38;100.00
73297;BME280;61524;50.938;11.396;2022-12-01T14:22:06;99990.63;;;-0.42;100.00
73297;BME280;61524;50.938;11.396;2022-12-01T14:24:51;99988.47;;;-0.38;100.00
73297;BME280;61524;50.938;11.396;2022-12-01T14:27:38;99987.28;;;-0.44;100.00
73297;BME280;61524;50.938;11.396;2022-12-01T14:39:12;99982.59;;;-0.58;100.00
73297;BME280;61524;50.938;11.396;2022-12-01T14:47:12;99980.56;;;-0.46;100.00
73297;BME280;61524;50.938;11.396;2022-12-01T14:52:25;99980.66;;;-0.56;100.00
73297;BME280;61524;50.938;11.396;2022-12-01T14:54:59;99984.31;;;-0.67;100.00
73297;BME280;61524;50.938;11.396;2022-12-01T14:57:38;99973.22;;;-0.61;100.00
73297;BME280;61524;50.938;11.396;2022-12-01T15:00:16;99983.34;;;-0.66;100.00
73297;BME280;61524;50.938;11.396;2022-12-01T15:02:46;99984.53;;;-0.60;100.00
73297;BME280;61524;50.938;11.396;2022-12-01T15:05:15;99985.22;;;-0.58;100.00
73297;BME280;61524;50.938;11.396;2022-12-01T15:07:45;99968.06;;;-0.52;100.00
73297;BME280;61524;50.938;11.396;2022-12-01T15:12:41;99981.69;;;-0.49;100.00
73297;BME280;61524;50.938;11.396;2022-12-01T15:15:14;99976.59;;;-0.50;100.00